Time;durP1;ratioP1;P1;durP2;ratioP2;P2;SDS_P1;SDS_P2;PMS_P1;PMS_P2;Temp;Humidity;BMP_temperature;BMP_pressure;BME280_temperature;BME280_humidity;BME280_pressure;Samples;Min_cycle;Max_cycle;Signal;HPM_P1;HPM_P2
2021/05/02 00:01:43;;;;;;;20.10;4.53;;;;;;;20.34;52.20;94628.16;5070231;28;20202;-70
2021/05/02 00:04:10;;;;;;;13.50;4.53;;;;;;;20.09;51.86;94607.75;5070051;28;20196;-72
2021/05/02 00:06:37;;;;;;;13.40;4.43;;;;;;;20.34;52.06;94624.72;5070330;28;20187;-72
2021/05/02 00:09:03;;;;;;;13.60;4.57;;;;;;;20.12;53.26;94631.06;5069479;28;20227;-71
2021/05/02 00:11:30;;;;;;;14.37;4.73;;;;;;;19.83;53.47;94615.09;5070057;28;20199;-73
2021/05/02 00:13:56;;;;;;;16.57;4.90;;;;;;;19.89;54.00;94600.53;5069674;28;20196;-71
2021/05/02 00:16:23;;;;;;;17.37;4.90;;;;;;;19.96;53.60;94608.78;5070634;28;20203;-71
2021/05/02 00:18:49;;;;;;;12.97;4.80;;;;;;;20.01;53.91;94592.66;5069795;28;20799;-71
2021/05/02 00:21:16;;;;;;;15.53;4.73;;;;;;;20.16;53.62;94605.41;5070012;28;20195;-72
2021/05/02 00:23:42;;;;;;;13.73;4.90;;;;;;;20.03;53.35;94595.75;5072338;28;20203;-72
2021/05/02 00:26:10;;;;;;;17.77;4.20;;;;;;;20.26;52.59;94605.03;5071701;28;20198;-73
2021/05/02 00:28:46;;;;;;;16.27;4.73;;;;;;;19.71;54.13;94599.03;5069692;28;20200;-72
2021/05/02 00:31:13;;;;;;;15.53;4.60;;;;;;;19.88;54.17;94604.28;5070155;28;20230;-71
2021/05/02 00:33:41;;;;;;;15.30;4.57;;;;;;;19.86;53.93;94593.19;5069889;28;20227;-71
2021/05/02 00:36:08;;;;;;;17.17;4.70;;;;;;;19.94;53.36;94587.06;5070234;28;20430;-70
2021/05/02 00:38:37;;;;;;;12.43;4.47;;;;;;;20.05;53.47;94588.25;5069281;28;20306;-72
2021/05/02 00:41:08;;;;;;;14.53;5.10;;;;;;;20.10;53.32;94585.41;5051354;28;20665;-72
2021/05/02 00:44:21;;;;;;;12.27;4.70;;;;;;;19.90;53.61;94596.78;5069420;28;20192;-71
2021/05/02 00:47:02;;;;;;;18.13;4.67;;;;;;;19.98;53.49;94578.09;5064116;28;20206;-71
2021/05/02 00:49:41;;;;;;;15.67;4.53;;;;;;;19.95;53.85;94568.13;5069492;28;20214;-71
2021/05/02 00:52:16;;;;;;;25.93;10.37;;;;;;;19.51;55.01;94573.16;5069422;28;20773;-72
2021/05/02 00:54:56;;;;;;;16.57;5.67;;;;;;;19.81;53.79;94561.47;5069652;28;20297;-70
2021/05/02 00:57:43;;;;;;;13.60;5.47;;;;;;;19.85;54.15;94551.75;5069221;28;20282;-74
2021/05/02 01:00:12;;;;;;;18.20;5.80;;;;;;;19.73;55.10;94559.63;5069440;28;20207;-70
2021/05/02 01:02:41;;;;;;;21.03;6.03;;;;;;;19.71;55.03;94548.53;5069557;28;20438;-71
2021/05/02 01:05:11;;;;;;;15.40;4.70;;;;;;;19.23;55.84;94561.34;5069351;28;20200;-72
2021/05/02 01:07:42;;;;;;;19.50;4.93;;;;;;;19.52;55.19;94553.47;5069282;28;20569;-71
2021/05/02 01:10:10;;;;;;;17.43;5.07;;;;;;;19.71;54.48;94551.19;5069274;28;20743;-70
2021/05/02 01:12:39;;;;;;;15.70;4.70;;;;;;;19.53;54.93;94553.16;5071317;28;20195;-71
2021/05/02 01:15:09;;;;;;;16.33;4.43;;;;;;;19.33;55.80;94540.56;5073471;28;20286;-72
2021/05/02 01:17:45;;;;;;;17.13;4.60;;;;;;;19.49;55.40;94556.78;5072907;28;20211;-72
2021/05/02 01:20:15;;;;;;;22.00;4.63;;;;;;;19.45;55.09;94550.53;5073536;28;20437;-71
2021/05/02 01:22:43;;;;;;;18.50;4.67;;;;;;;19.62;54.77;94537.16;5072898;28;20199;-72
2021/05/02 01:25:12;;;;;;;17.23;4.83;;;;;;;19.74;54.48;94530.03;5073690;28;20249;-72
2021/05/02 01:27:39;;;;;;;18.77;5.00;;;;;;;19.86;54.16;94537.34;5073075;28;20274;-71
2021/05/02 01:30:10;;;;;;;16.07;5.50;;;;;;;19.41;55.27;94536.31;5073273;28;20200;-72
2021/05/02 01:32:37;;;;;;;16.47;4.97;;;;;;;19.78;54.23;94524.91;5072856;28;20579;-71
2021/05/02 01:35:05;;;;;;;15.70;4.87;;;;;;;19.78;54.42;94525.66;5073586;28;20552;-72
2021/05/02 01:37:32;;;;;;;17.67;4.97;;;;;;;19.14;55.27;94487.03;5072307;28;20214;-70
2021/05/02 01:39:59;;;;;;;18.37;5.43;;;;;;;19.50;55.62;94523.78;5073025;28;20196;-72
2021/05/02 01:42:25;;;;;;;22.07;5.60;;;;;;;19.55;55.31;94504.97;5054781;28;20644;-72
2021/05/02 01:44:52;;;;;;;14.47;4.27;;;;;;;19.67;54.93;94505.09;5073147;28;20441;-73
2021/05/02 01:47:20;;;;;;;22.40;5.10;;;;;;;19.49;55.65;94519.56;5072597;28;20461;-72
2021/05/02 01:49:55;;;;;;;18.73;5.27;;;;;;;19.59;55.34;94519.19;5073079;28;20437;-70
2021/05/02 01:52:23;;;;;;;19.70;5.13;;;;;;;19.36;56.04;94528.53;5072434;28;20202;-71
2021/05/02 01:54:50;;;;;;;14.83;4.97;;;;;;;19.49;56.21;94530.97;5072948;28;20206;-72
2021/05/02 01:57:21;;;;;;;13.07;5.40;;;;;;;19.49;56.01;94515.00;5072051;28;20270;-70
2021/05/02 01:59:50;;;;;;;21.50;5.27;;;;;;;19.41;56.75;94529.13;5072835;28;20665;-71
2021/05/02 02:02:17;;;;;;;19.63;5.80;;;;;;;19.10;58.26;94532.00;5072240;28;20203;-71
2021/05/02 02:04:49;;;;;;;15.17;5.73;;;;;;;19.30;57.06;94532.41;5072438;28;20237;-73
2021/05/02 02:07:18;;;;;;;20.47;5.50;;;;;;;19.09;58.54;94535.75;5072046;28;20438;-70
2021/05/02 02:09:45;;;;;;;18.13;5.40;;;;;;;19.21;57.83;94530.56;5071954;28;20470;-71
2021/05/02 02:12:12;;;;;;;13.00;4.80;;;;;;;19.36;57.74;94533.84;5072060;28;20261;-71
2021/05/02 02:14:39;;;;;;;19.57;5.63;;;;;;;19.29;57.45;94512.28;5072618;28;20182;-70
2021/05/02 02:17:08;;;;;;;17.47;5.43;;;;;;;19.35;57.51;94529.59;5053742;28;20235;-71
2021/05/02 02:19:36;;;;;;;19.60;5.60;;;;;;;19.01;58.35;94544.50;5072508;28;20220;-71
2021/05/02 02:22:05;;;;;;;16.83;4.97;;;;;;;18.86;59.18;94542.38;5071980;28;20218;-71
2021/05/02 02:24:45;;;;;;;18.90;5.47;;;;;;;19.10;58.60;94541.84;5070994;28;21045;-72
2021/05/02 02:27:13;;;;;;;20.23;5.00;;;;;;;19.04;58.18;94527.97;5071611;28;20827;-71
2021/05/02 02:29:46;;;;;;;15.03;4.87;;;;;;;18.87;58.49;94527.22;5072174;28;20438;-72
2021/05/02 02:32:15;;;;;;;14.57;4.53;;;;;;;19.25;57.90;94537.91;5071918;28;20453;-71
2021/05/02 02:34:47;;;;;;;10.53;4.50;;;;;;;19.08;58.02;94526.25;5072404;28;20438;-72
2021/05/02 02:37:18;;;;;;;13.47;4.10;;;;;;;18.96;57.83;94534.06;5071611;28;20449;-72
2021/05/02 02:39:51;;;;;;;19.77;4.33;;;;;;;18.95;57.61;94534.38;5071836;28;20441;-72
2021/05/02 02:42:19;;;;;;;14.90;4.30;;;;;;;18.83;57.73;94511.13;5072215;28;20438;-71
2021/05/02 02:44:50;;;;;;;18.97;3.97;;;;;;;18.82;58.57;94520.22;5054864;28;20203;-70
2021/05/02 02:47:19;;;;;;;13.23;4.17;;;;;;;18.86;57.41;94520.34;5074413;28;20952;-71
2021/05/02 02:49:48;;;;;;;12.03;4.10;;;;;;;18.72;58.22;94520.53;5073750;28;20188;-70
2021/05/02 02:52:21;;;;;;;12.77;4.20;;;;;;;18.76;58.43;94537.38;5073116;28;20886;-70
2021/05/02 02:55:03;;;;;;;17.00;4.93;;;;;;;18.75;58.40;94524.44;5074447;28;20476;-71
2021/05/02 02:57:40;;;;;;;13.70;4.80;;;;;;;18.81;58.68;94525.84;5073801;28;20271;-71
2021/05/02 03:00:07;;;;;;;12.70;4.40;;;;;;;18.90;58.32;94532.66;5073137;28;20441;-70
2021/05/02 03:02:37;;;;;;;17.10;4.80;;;;;;;18.87;57.62;94538.63;5072769;28;20203;-71
2021/05/02 03:05:04;;;;;;;19.13;4.97;;;;;;;18.72;57.80;94507.25;5071668;28;20446;-72
2021/05/02 03:07:33;;;;;;;19.50;4.70;;;;;;;18.80;58.06;94537.53;5071155;28;20202;-73
2021/05/02 03:10:00;;;;;;;15.67;4.77;;;;;;;18.55;58.92;94531.19;5071642;28;20571;-72
2021/05/02 03:12:27;;;;;;;19.17;5.37;;;;;;;18.11;60.66;94537.53;5072878;28;20419;-72
2021/05/02 03:14:56;;;;;;;17.80;4.83;;;;;;;18.39;60.26;94532.72;5072027;28;20445;-72
2021/05/02 03:17:30;;;;;;;13.27;4.40;;;;;;;18.39;59.73;94530.06;5070777;28;20430;-71
2021/05/02 03:20:06;;;;;;;18.00;5.10;;;;;;;18.57;58.67;94533.50;5071062;28;20511;-72
2021/05/02 03:22:48;;;;;;;17.87;4.83;;;;;;;18.78;58.55;94535.19;5070974;28;20448;-71
2021/05/02 03:25:21;;;;;;;14.53;4.40;;;;;;;18.72;58.40;94504.59;5053437;28;20449;-71
2021/05/02 03:27:58;;;;;;;19.30;4.70;;;;;;;18.60;59.14;94533.66;5070485;28;20438;-72
2021/05/02 03:30:26;;;;;;;16.80;4.60;;;;;;;18.42;59.83;94528.66;5071389;28;20445;-71
2021/05/02 03:32:56;;;;;;;16.47;4.73;;;;;;;18.52;59.03;94520.41;5070756;28;20824;-70
2021/05/02 03:35:27;;;;;;;15.70;5.00;;;;;;;18.30;59.77;94531.94;5070392;28;20832;-73
2021/05/02 03:38:02;;;;;;;15.67;4.77;;;;;;;18.45;59.18;94520.88;5070356;28;20693;-71
2021/05/02 03:40:29;;;;;;;17.73;5.17;;;;;;;18.58;59.11;94541.16;5070880;28;20532;-73
2021/05/02 03:42:55;;;;;;;13.13;4.60;;;;;;;18.38;60.18;94541.75;5070809;28;20528;-72
2021/05/02 03:45:21;;;;;;;16.30;4.77;;;;;;;17.51;62.97;94523.38;5070471;28;20442;-71
2021/05/02 03:47:48;;;;;;;16.57;5.57;;;;;;;17.73;62.40;94530.44;5070409;28;20480;-72
2021/05/02 03:50:14;;;;;;;15.57;5.70;;;;;;;18.02;61.37;94531.44;5070524;28;20434;-74
2021/05/02 03:52:41;;;;;;;12.80;4.80;;;;;;;18.27;60.50;94551.09;5070036;28;20531;-74
2021/05/02 03:55:07;;;;;;;14.53;4.97;;;;;;;18.41;60.27;94551.75;5070537;28;20821;-73
2021/05/02 03:57:52;;;;;;;18.17;5.20;;;;;;;18.51;59.29;94559.41;5070036;28;21002;-71
2021/05/02 04:00:19;;;;;;;17.83;4.93;;;;;;;18.61;59.95;94545.81;5070468;28;20442;-70
2021/05/02 04:02:47;;;;;;;19.43;5.20;;;;;;;18.54;59.87;94539.44;5070003;28;20835;-70
2021/05/02 04:05:13;;;;;;;16.60;4.40;;;;;;;18.61;59.81;94545.81;5070697;28;20433;-69
2021/05/02 04:07:40;;;;;;;18.97;5.30;;;;;;;18.83;58.81;94550.94;5069616;28;20803;-72
2021/05/02 04:10:07;;;;;;;16.80;5.37;;;;;;;18.69;59.01;94545.03;5070238;28;20473;-71
2021/05/02 04:12:33;;;;;;;13.83;4.40;;;;;;;18.63;59.63;94543.63;5052157;28;20446;-71
2021/05/02 04:14:59;;;;;;;16.23;4.60;;;;;;;18.69;59.85;94546.91;5070231;28;20575;-71
2021/05/02 04:17:27;;;;;;;14.90;5.40;;;;;;;18.83;59.86;94545.66;5069300;28;20491;-72
2021/05/02 04:19:54;;;;;;;19.43;5.70;;;;;;;18.57;61.13;94550.22;5070425;28;20422;-72
2021/05/02 04:22:21;;;;;;;20.60;5.80;;;;;;;18.63;60.65;94514.44;5069578;28;20450;-72
2021/05/02 04:24:48;;;;;;;21.23;5.63;;;;;;;18.75;60.38;94540.34;5051963;28;20445;-72
2021/05/02 04:27:16;;;;;;;19.07;5.97;;;;;;;18.82;60.13;94535.34;5051963;28;20800;-72
2021/05/02 04:29:43;;;;;;;14.93;5.20;;;;;;;18.88;59.84;94534.09;5070311;28;20446;-70
2021/05/02 04:32:09;;;;;;;12.40;5.10;;;;;;;19.04;58.97;94527.97;5069286;28;20449;-71
2021/05/02 04:34:36;;;;;;;19.10;5.57;;;;;;;18.52;60.41;94526.47;5052067;28;20834;-73
2021/05/02 04:37:03;;;;;;;15.60;5.73;;;;;;;19.07;59.15;94531.84;5072560;28;20282;-71
2021/05/02 04:39:29;;;;;;;17.43;5.47;;;;;;;19.11;58.95;94528.25;5071855;28;20485;-72
2021/05/02 04:41:57;;;;;;;15.07;5.30;;;;;;;19.08;59.14;94536.09;5069332;28;20444;-72
2021/05/02 04:44:24;;;;;;;16.37;5.40;;;;;;;19.04;59.18;94535.94;5070402;28;21047;-71
2021/05/02 04:46:51;;;;;;;17.80;5.80;;;;;;;19.23;58.28;94536.34;5050969;28;20449;-71
2021/05/02 04:49:20;;;;;;;17.30;4.97;;;;;;;19.41;57.19;94515.06;5069672;28;20450;-71
2021/05/02 04:51:47;;;;;;;15.23;4.70;;;;;;;19.68;58.09;94539.31;5069539;28;20503;-71
2021/05/02 04:54:13;;;;;;;21.13;5.00;;;;;;;19.87;57.39;94541.59;5052058;28;20575;-73
2021/05/02 04:56:40;;;;;;;23.40;5.40;;;;;;;19.90;56.73;94532.94;5069703;28;20199;-71
2021/05/02 04:59:09;;;;;;;21.23;5.47;;;;;;;19.81;55.77;94534.88;5068962;28;20850;-73
2021/05/02 05:01:39;;;;;;;18.67;5.70;;;;;;;19.90;55.72;94532.94;5069495;28;20454;-71
2021/05/02 05:04:06;;;;;;;17.97;5.37;;;;;;;19.96;54.76;94526.34;5069208;28;20742;-71
2021/05/02 05:06:34;;;;;;;17.63;5.40;;;;;;;20.07;54.54;94511.56;5069717;28;20503;-71
2021/05/02 05:09:00;;;;;;;14.13;4.97;;;;;;;20.34;54.43;94511.09;5068921;28;20224;-71
2021/05/02 05:11:27;;;;;;;13.17;4.70;;;;;;;20.48;54.20;94511.59;5069281;28;20633;-70
2021/05/02 05:13:53;;;;;;;16.20;5.47;;;;;;;20.65;53.47;94500.81;5069229;28;20231;-71
2021/05/02 05:16:20;;;;;;;15.83;5.10;;;;;;;20.80;53.60;94508.16;5070003;28;20215;-70
2021/05/02 05:18:46;;;;;;;20.40;5.37;;;;;;;20.77;53.27;94514.16;5069276;28;20549;-72
2021/05/02 05:21:13;;;;;;;18.57;5.53;;;;;;;20.70;52.67;94508.59;5069622;28;20196;-72
2021/05/02 05:23:39;;;;;;;18.40;6.03;;;;;;;20.62;53.53;94496.13;5069725;28;20226;-72
2021/05/02 05:26:06;;;;;;;19.10;5.27;;;;;;;20.79;53.11;94503.16;5070095;28;20720;-71
2021/05/02 05:28:32;;;;;;;14.83;4.97;;;;;;;20.88;53.01;94499.31;5068694;28;20419;-72
2021/05/02 05:30:58;;;;;;;18.50;5.97;;;;;;;21.25;52.47;94504.75;5069492;28;20204;-72
2021/05/02 05:33:30;;;;;;;14.63;5.23;;;;;;;21.19;52.26;94501.50;5069119;28;20196;-71
2021/05/02 05:35:56;;;;;;;14.60;5.33;;;;;;;21.40;51.47;94530.75;5069388;28;20202;-72
2021/05/02 05:38:23;;;;;;;20.30;5.43;;;;;;;21.21;50.21;94547.25;5068818;28;20234;-71
2021/05/02 05:40:50;;;;;;;12.87;5.23;;;;;;;21.07;50.48;94550.25;5069236;28;20574;-71
2021/05/02 05:43:16;;;;;;;16.97;5.13;;;;;;;21.25;50.35;94544.72;5068640;28;20211;-72
2021/05/02 05:45:44;;;;;;;17.43;4.93;;;;;;;21.12;49.78;94554.56;5068926;28;20214;-71
2021/05/02 05:48:10;;;;;;;13.53;4.67;;;;;;;21.38;49.35;94538.31;5069052;28;20271;-71
2021/05/02 05:50:37;;;;;;;15.07;4.37;;;;;;;21.64;48.84;94515.53;5069447;28;20223;-71
2021/05/02 05:53:03;;;;;;;22.37;5.43;;;;;;;21.72;50.34;94519.22;5069243;28;20188;-71
2021/05/02 05:55:30;;;;;;;12.30;4.07;;;;;;;21.73;48.79;94528.78;5069254;28;20203;-70
2021/05/02 05:57:56;;;;;;;12.83;4.83;;;;;;;21.93;48.41;94527.91;5069524;28;20273;-70
2021/05/02 06:00:23;;;;;;;13.60;5.03;;;;;;;22.10;48.13;94527.66;5073226;28;20210;-70
2021/05/02 06:02:50;;;;;;;14.63;4.97;;;;;;;22.02;48.31;94533.91;5056759;28;20204;-72
2021/05/02 06:05:16;;;;;;;16.90;4.70;;;;;;;22.07;46.58;94523.00;5072718;28;20188;-70
2021/05/02 06:07:44;;;;;;;13.97;4.07;;;;;;;22.07;46.27;94534.47;5071864;28;20275;-72
2021/05/02 06:10:12;;;;;;;14.57;4.47;;;;;;;22.07;47.03;94531.00;5072231;28;20239;-71
2021/05/02 06:12:38;;;;;;;12.80;4.20;;;;;;;22.10;47.00;94533.00;5072023;28;20208;-71
2021/05/02 06:15:05;;;;;;;14.60;4.60;;;;;;;21.91;45.94;94533.59;5072336;28;20742;-70
2021/05/02 06:17:32;;;;;;;16.77;4.80;;;;;;;22.20;45.26;94524.53;5071970;28;20294;-70
2021/05/02 06:19:58;;;;;;;17.73;5.10;;;;;;;22.24;46.56;94538.78;5072406;28;20673;-70
2021/05/02 06:22:25;;;;;;;16.63;4.37;;;;;;;22.30;46.77;94536.66;5071868;28;20192;-73
2021/05/02 06:24:51;;;;;;;15.63;4.60;;;;;;;22.23;45.84;94518.53;5071913;28;20680;-71
2021/05/02 06:27:18;;;;;;;16.70;4.50;;;;;;;22.32;46.32;94513.84;5071926;28;20199;-71
2021/05/02 06:29:44;;;;;;;16.23;4.60;;;;;;;22.36;46.83;94522.72;5072211;28;20227;-71
2021/05/02 06:32:11;;;;;;;15.37;4.33;;;;;;;22.38;46.94;94512.50;5071795;28;20192;-71
2021/05/02 06:34:37;;;;;;;16.57;4.63;;;;;;;22.36;46.54;94521.94;5071734;28;20209;-70
2021/05/02 06:37:04;;;;;;;17.80;4.47;;;;;;;22.47;46.60;94531.81;5071475;28;20529;-73
2021/05/02 06:39:31;;;;;;;21.20;5.00;;;;;;;22.54;46.83;94537.34;5072319;28;20247;-72
2021/05/02 06:41:58;;;;;;;16.43;5.07;;;;;;;22.71;46.61;94534.44;5071435;28;20195;-70
2021/05/02 06:44:24;;;;;;;16.67;5.03;;;;;;;22.72;45.17;94533.31;5071784;28;20692;-70
2021/05/02 06:46:53;;;;;;;13.50;5.30;;;;;;;22.70;44.36;94540.88;5071576;28;20196;-71
2021/05/02 06:49:20;;;;;;;18.77;5.57;;;;;;;22.80;44.89;94529.72;5072252;28;20277;-71
2021/05/02 06:51:46;;;;;;;14.93;4.70;;;;;;;23.06;44.62;94523.94;5071377;28;20200;-71
2021/05/02 06:54:13;;;;;;;21.43;4.97;;;;;;;23.22;44.82;94519.38;5072167;28;20207;-71
2021/05/02 06:56:40;;;;;;;20.33;5.73;;;;;;;23.21;44.71;94514.38;5072013;28;20215;-71
2021/05/02 06:59:07;;;;;;;11.70;4.63;;;;;;;23.25;43.82;94508.00;5071680;28;20227;-70
2021/05/02 07:01:33;;;;;;;14.90;4.80;;;;;;;23.21;44.06;94517.06;5071711;28;20196;-71
2021/05/02 07:03:59;;;;;;;16.57;4.63;;;;;;;23.45;44.43;94506.25;5071385;28;20192;-71
2021/05/02 07:06:33;;;;;;;16.47;4.53;;;;;;;23.09;43.75;94505.31;5053783;28;20200;-71
2021/05/02 07:09:01;;;;;;;17.03;4.40;;;;;;;22.95;44.46;94509.50;5070420;28;20674;-71
2021/05/02 07:11:28;;;;;;;15.10;4.40;;;;;;;23.24;44.07;94514.47;5071030;28;20670;-71
2021/05/02 07:13:54;;;;;;;21.67;4.97;;;;;;;23.33;44.00;94515.13;5070787;28;20206;-71
2021/05/02 07:16:22;;;;;;;15.37;4.90;;;;;;;23.36;44.73;94503.72;5071583;28;20196;-71
2021/05/02 07:18:50;;;;;;;17.23;5.00;;;;;;;23.48;44.92;94505.53;5070721;28;20230;-71
2021/05/02 07:21:19;;;;;;;16.90;4.80;;;;;;;23.47;44.18;94514.66;5071229;28;20192;-72
2021/05/02 07:23:48;;;;;;;15.27;4.77;;;;;;;23.70;44.94;94535.13;5070575;28;20673;-70
2021/05/02 07:26:17;;;;;;;15.00;4.63;;;;;;;23.71;45.11;94531.34;5073538;28;20196;-70
2021/05/02 07:28:43;;;;;;;12.97;4.83;;;;;;;23.90;44.32;94549.38;5070938;28;20184;-71
2021/05/02 07:31:13;;;;;;;18.20;4.97;;;;;;;23.76;44.46;94544.44;5071054;28;20731;-71
2021/05/02 07:33:41;;;;;;;12.90;4.37;;;;;;;23.80;45.60;94561.38;5070248;28;20214;-71
2021/05/02 07:36:08;;;;;;;16.23;5.03;;;;;;;23.91;44.18;94564.28;5070931;28;20219;-70
2021/05/02 07:38:35;;;;;;;12.33;4.47;;;;;;;23.96;44.21;94555.97;5070521;28;20307;-71
2021/05/02 07:41:04;;;;;;;13.23;4.97;;;;;;;24.10;44.66;94561.72;5052672;28;20212;-71
2021/05/02 07:43:32;;;;;;;16.43;4.80;;;;;;;24.15;43.93;94564.13;5070192;28;20638;-72
2021/05/02 07:46:01;;;;;;;14.20;4.53;;;;;;;24.11;44.51;94571.28;5070893;28;20943;-70
2021/05/02 07:48:27;;;;;;;22.50;5.67;;;;;;;24.22;44.14;94583.00;5070385;28;20187;-71
2021/05/02 07:50:55;;;;;;;23.73;5.50;;;;;;;23.99;45.12;94574.84;5070468;28;20867;-71
2021/05/02 07:53:22;;;;;;;12.37;4.47;;;;;;;23.97;46.01;94585.09;5070055;28;20196;-73
2021/05/02 07:55:49;;;;;;;14.33;4.23;;;;;;;24.03;46.13;94574.94;5070977;28;20254;-72
2021/05/02 07:58:15;;;;;;;19.87;5.43;;;;;;;24.02;45.39;94579.50;5069959;28;20219;-71
2021/05/02 08:00:41;;;;;;;16.97;5.30;;;;;;;23.91;46.16;94575.00;5070186;28;20225;-71
2021/05/02 08:03:08;;;;;;;16.53;5.03;;;;;;;24.05;45.83;94572.66;5070238;28;20575;-71
2021/05/02 08:05:34;;;;;;;18.50;5.07;;;;;;;24.18;45.04;94576.03;5071019;28;20224;-73
2021/05/02 08:08:01;;;;;;;16.07;4.87;;;;;;;24.30;44.78;94583.97;5069940;28;20287;-72
2021/05/02 08:10:28;;;;;;;16.00;4.80;;;;;;;24.33;44.35;94584.03;5070143;28;20245;-71
2021/05/02 08:12:56;;;;;;;17.40;4.93;;;;;;;24.35;44.31;94576.44;5069947;28;20218;-72
2021/05/02 08:15:23;;;;;;;17.20;5.27;;;;;;;24.38;44.15;94575.72;5070002;28;20682;-71
2021/05/02 08:17:49;;;;;;;21.40;5.30;;;;;;;24.22;44.57;94558.91;5070106;28;20528;-71
2021/05/02 08:20:16;;;;;;;16.00;5.10;;;;;;;24.56;44.10;94574.19;5070008;28;20207;-71
2021/05/02 08:22:43;;;;;;;19.23;5.70;;;;;;;24.76;43.90;94583.09;5069717;28;20202;-72
2021/05/02 08:25:10;;;;;;;16.33;5.70;;;;;;;24.95;43.56;94583.88;5070000;28;20637;-71
2021/05/02 08:27:36;;;;;;;14.50;5.40;;;;;;;25.00;43.66;94580.91;5051534;28;20669;-72
2021/05/02 08:30:04;;;;;;;25.17;6.10;;;;;;;25.24;43.17;94579.03;5069750;28;20650;-71
2021/05/02 08:32:31;;;;;;;19.87;5.77;;;;;;;25.37;42.89;94588.47;5069368;28;20188;-72
2021/05/02 08:34:58;;;;;;;13.77;5.40;;;;;;;25.26;43.37;94587.50;5069920;28;20291;-71
2021/05/02 08:37:24;;;;;;;20.13;5.67;;;;;;;25.36;43.81;94579.69;5069806;28;20184;-71
2021/05/02 08:39:51;;;;;;;20.00;5.63;;;;;;;25.44;43.31;94583.25;5069850;28;20216;-72
2021/05/02 08:42:17;;;;;;;19.60;5.97;;;;;;;25.67;43.91;94586.75;5069430;28;20240;-71
2021/05/02 08:44:44;;;;;;;21.33;5.60;;;;;;;25.74;43.46;94581.50;5070134;28;20215;-71
2021/05/02 08:47:13;;;;;;;22.97;5.63;;;;;;;25.85;43.12;94583.25;5069465;28;20206;-72
2021/05/02 08:49:42;;;;;;;18.63;5.70;;;;;;;25.98;43.38;94586.50;5070627;28;20668;-71
2021/05/02 08:52:08;;;;;;;18.53;5.53;;;;;;;26.12;42.26;94581.41;5071505;28;20220;-70
2021/05/02 08:54:36;;;;;;;15.67;5.17;;;;;;;26.22;42.33;94580.00;5069875;28;20204;-72
2021/05/02 08:57:03;;;;;;;18.33;4.77;;;;;;;26.25;42.08;94569.31;5069334;28;20211;-70
2021/05/02 08:59:29;;;;;;;17.83;4.77;;;;;;;26.37;41.91;94568.34;5069758;28;20212;-71
2021/05/02 09:01:56;;;;;;;15.77;5.20;;;;;;;26.24;43.37;94557.00;5069284;28;20199;-71
2021/05/02 09:04:23;;;;;;;19.50;4.97;;;;;;;26.43;41.63;94550.75;5069752;28;20192;-70
2021/05/02 09:06:50;;;;;;;15.10;5.13;;;;;;;26.46;41.89;94545.44;5069327;28;20221;-71
2021/05/02 09:09:17;;;;;;;15.37;5.90;;;;;;;26.43;40.43;94548.84;5068835;28;20665;-70
2021/05/02 09:11:46;;;;;;;15.07;5.00;;;;;;;26.27;39.09;94550.94;5069113;28;20211;-72
2021/05/02 09:14:20;;;;;;;17.77;5.73;;;;;;;26.38;38.29;94545.69;5069465;28;20287;-70
2021/05/02 09:17:20;;;;;;;20.87;4.77;;;;;;;26.60;39.25;94526.81;5069243;28;20658;-70
2021/05/02 09:19:50;;;;;;;18.67;4.57;;;;;;;26.78;37.50;94517.09;5050917;28;20302;-69
2021/05/02 09:22:18;;;;;;;17.97;5.13;;;;;;;27.17;38.25;94512.13;5069162;28;20584;-70
2021/05/02 09:25:04;;;;;;;17.03;4.33;;;;;;;27.42;33.06;94512.41;5069615;28;20296;-70
2021/05/02 09:27:30;;;;;;;15.50;4.63;;;;;;;27.44;30.08;94505.50;5068887;28;20202;-69
2021/05/02 09:30:17;;;;;;;16.03;4.00;;;;;;;27.01;28.49;94503.50;5069420;28;20180;-72
2021/05/02 09:32:48;;;;;;;19.03;4.20;;;;;;;27.29;29.90;94498.41;5051570;28;20231;-73
2021/05/02 09:35:24;;;;;;;14.73;4.23;;;;;;;27.59;29.49;94506.41;5073317;28;20195;-71
2021/05/02 09:38:15;;;;;;;20.87;4.30;;;;;;;27.95;29.69;94492.09;5055042;28;20577;-71
2021/05/02 09:40:53;;;;;;;14.93;3.87;;;;;;;28.20;28.89;94498.41;5072866;28;20198;-72
2021/05/02 09:43:47;;;;;;;20.07;4.70;;;;;;;27.96;28.32;94493.63;5073423;28;20219;-69
2021/05/02 09:46:33;;;;;;;17.50;4.70;;;;;;;28.40;28.29;94497.00;5074084;28;20211;-70
2021/05/02 09:49:09;;;;;;;20.73;4.40;;;;;;;28.07;27.56;94483.72;5073230;28;20548;-73
2021/05/02 09:51:56;;;;;;;20.23;4.57;;;;;;;28.46;27.31;94490.09;5072591;28;20191;-70
2021/05/02 09:54:27;;;;;;;23.27;4.67;;;;;;;28.47;28.01;94475.47;5073021;28;20203;-71
2021/05/02 09:57:02;;;;;;;16.20;3.93;;;;;;;28.55;26.15;94487.09;5072591;28;20211;-70
2021/05/02 09:59:31;;;;;;;14.57;3.30;;;;;;;28.54;26.02;94486.31;5072913;28;20314;-70
2021/05/02 10:02:10;;;;;;;17.47;4.13;;;;;;;28.74;24.92;94474.06;5072236;28;20248;-71
2021/05/02 10:04:51;;;;;;;15.40;2.90;;;;;;;28.74;24.72;94479.44;5072807;28;20195;-71
2021/05/02 10:07:21;;;;;;;18.10;4.27;;;;;;;29.16;25.65;94478.81;5072048;28;20278;-71
2021/05/02 10:09:50;;;;;;;13.23;4.13;;;;;;;29.21;25.51;94491.19;5072520;28;20258;-70
2021/05/02 10:12:17;;;;;;;14.53;3.77;;;;;;;29.26;25.09;94482.72;5071914;28;20283;-71
2021/05/02 10:14:45;;;;;;;15.50;4.37;;;;;;;29.37;24.34;94478.09;5074630;28;20208;-70
2021/05/02 10:17:12;;;;;;;15.27;3.50;;;;;;;29.58;24.42;94461.94;5073683;28;20275;-74
2021/05/02 10:19:41;;;;;;;13.77;3.47;;;;;;;29.27;24.13;94462.69;5072300;28;20259;-71
2021/05/02 10:22:07;;;;;;;18.77;3.90;;;;;;;29.91;23.90;94458.84;5071850;28;20195;-70
2021/05/02 10:24:35;;;;;;;17.27;4.10;;;;;;;29.82;23.85;94466.56;5072371;28;20290;-70
2021/05/02 10:27:07;;;;;;;13.70;3.47;;;;;;;29.98;24.59;94461.53;5072002;28;20361;-71
2021/05/02 10:29:38;;;;;;;14.20;4.20;;;;;;;29.60;24.29;94454.97;5072079;28;20617;-70
2021/05/02 10:32:08;;;;;;;14.43;3.60;;;;;;;30.04;24.28;94445.69;5071634;28;20286;-69
2021/05/02 10:34:41;;;;;;;17.60;3.63;;;;;;;30.34;24.47;94448.75;5072373;28;20262;-68
2021/05/02 10:37:23;;;;;;;18.83;3.93;;;;;;;30.70;24.03;94459.03;5071309;28;20301;-70
2021/05/02 10:40:18;;;;;;;17.93;3.90;;;;;;;30.46;24.07;94454.50;5071706;28;20712;-71
2021/05/02 10:42:54;;;;;;;16.67;4.17;;;;;;;30.66;24.67;94460.97;5069898;28;20238;-70
2021/05/02 10:45:30;;;;;;;19.07;4.20;;;;;;;30.15;24.33;94449.91;5070624;28;20298;-71
2021/05/02 10:48:01;;;;;;;15.03;4.43;;;;;;;30.39;24.49;94457.22;5071282;28;21007;-70
2021/05/02 10:50:33;;;;;;;19.17;4.40;;;;;;;29.92;24.65;94460.38;5071622;28;20203;-71
2021/05/02 10:53:03;;;;;;;18.60;4.30;;;;;;;30.39;24.75;94446.41;5071653;28;20199;-69
2021/05/02 10:55:49;;;;;;;23.57;3.77;;;;;;;30.39;24.20;94446.41;5072151;28;20195;-69
2021/05/02 10:58:27;;;;;;;16.17;4.20;;;;;;;29.57;24.53;94428.75;5071022;28;20191;-70
2021/05/02 11:01:05;;;;;;;20.87;3.73;;;;;;;30.33;23.91;94441.81;5071184;28;20725;-70
2021/05/02 11:03:53;;;;;;;10.97;3.57;;;;;;;30.42;23.32;94417.84;5071101;28;20199;-70
2021/05/02 11:06:37;;;;;;;20.10;4.87;;;;;;;30.75;23.62;94420.75;5071910;28;20192;-70
2021/05/02 11:09:11;;;;;;;16.67;3.87;;;;;;;31.22;23.25;94432.88;5052826;28;20231;-68
2021/05/02 11:11:42;;;;;;;15.57;3.60;;;;;;;31.32;21.72;94425.84;5071269;28;20207;-70
2021/05/02 11:16:43;;;;;;;18.47;3.57;;;;;;;30.61;22.35;94423.53;5071406;28;20633;-71
2021/05/02 11:19:34;;;;;;;15.27;4.00;;;;;;;30.90;22.06;94416.06;5071413;28;20262;-71
2021/05/02 11:22:04;;;;;;;16.93;3.67;;;;;;;30.93;21.85;94414.50;5070505;28;20196;-69
2021/05/02 11:24:40;;;;;;;17.27;4.00;;;;;;;30.92;22.00;94421.84;5071031;28;20583;-69
2021/05/02 11:27:26;;;;;;;19.03;4.23;;;;;;;30.88;22.53;94424.59;5070644;28;20192;-70
2021/05/02 11:32:43;;;;;;;16.40;3.43;;;;;;;31.51;20.77;94412.59;5071554;28;20188;-71
2021/05/02 11:35:12;;;;;;;14.93;3.40;;;;;;;31.77;21.22;94405.75;5072170;28;20212;-70
2021/05/02 11:38:00;;;;;;;16.73;4.60;;;;;;;32.29;21.30;94401.78;5071134;28;20246;-70
2021/05/02 11:40:33;;;;;;;16.60;4.07;;;;;;;32.06;20.27;94407.06;5074699;28;20659;-70
2021/05/02 11:43:18;;;;;;;13.03;3.33;;;;;;;31.62;20.31;94382.69;5070276;28;20200;-70